sensor_id;sensor_type;location;lat;lon;timestamp;P1;durP1;ratioP1;P2;durP2;ratioP2
20391;SDS011;10355;53.688;10.078;2023-02-01T00:00:19;6.38;;;1.77;;
20391;SDS011;10355;53.688;10.078;2023-02-01T00:03:02;9.95;;;1.95;;
20391;SDS011;10355;53.688;10.078;2023-02-01T00:05:54;11.95;;;1.80;;
20391;SDS011;10355;53.688;10.078;2023-02-01T00:08:38;10.95;;;2.13;;
20391;SDS011;10355;53.688;10.078;2023-02-01T00:11:21;10.38;;;1.83;;
20391;SDS011;10355;53.688;10.078;2023-02-01T00:14:04;7.82;;;1.80;;
20391;SDS011;10355;53.688;10.078;2023-02-01T00:16:46;12.85;;;2.45;;
20391;SDS011;10355;53.688;10.078;2023-02-01T00:19:29;6.35;;;1.80;;
20391;SDS011;10355;53.688;10.078;2023-02-01T00:22:12;8.68;;;2.00;;
20391;SDS011;10355;53.688;10.078;2023-02-01T00:24:56;8.63;;;1.38;;
20391;SDS011;10355;53.688;10.078;2023-02-01T00:27:39;7.05;;;1.92;;
20391;SDS011;10355;53.688;10.078;2023-02-01T00:30:21;10.98;;;2.22;;
20391;SDS011;10355;53.688;10.078;2023-02-01T00:33:04;8.25;;;1.80;;
20391;SDS011;10355;53.688;10.078;2023-02-01T00:35:47;11.65;;;1.85;;
20391;SDS011;10355;53.688;10.078;2023-02-01T00:38:30;14.38;;;2.00;;
20391;SDS011;10355;53.688;10.078;2023-02-01T00:41:15;12.73;;;2.50;;
20391;SDS011;10355;53.688;10.078;2023-02-01T00:43:57;9.98;;;2.30;;
20391;SDS011;10355;53.688;10.078;2023-02-01T00:46:40;9.13;;;2.17;;
20391;SDS011;10355;53.688;10.078;2023-02-01T00:49:23;9.45;;;2.05;;
20391;SDS011;10355;53.688;10.078;2023-02-01T00:52:07;11.68;;;2.38;;
20391;SDS011;10355;53.688;10.078;2023-02-01T00:54:50;9.02;;;2.55;;
20391;SDS011;10355;53.688;10.078;2023-02-01T00:57:34;12.00;;;2.45;;
20391;SDS011;10355;53.688;10.078;2023-02-01T01:00:17;11.85;;;2.20;;
20391;SDS011;10355;53.688;10.078;2023-02-01T01:03:03;13.85;;;2.10;;
20391;SDS011;10355;53.688;10.078;2023-02-01T01:05:59;12.75;;;2.08;;
20391;SDS011;10355;53.688;10.078;2023-02-01T01:08:42;9.40;;;2.40;;
20391;SDS011;10355;53.688;10.078;2023-02-01T01:11:26;11.63;;;2.30;;
20391;SDS011;10355;53.688;10.078;2023-02-01T01:14:10;11.93;;;2.40;;
20391;SDS011;10355;53.688;10.078;2023-02-01T01:16:53;13.95;;;2.72;;
20391;SDS011;10355;53.688;10.078;2023-02-01T01:19:35;14.60;;;2.72;;
20391;SDS011;10355;53.688;10.078;2023-02-01T01:22:18;11.75;;;2.25;;
20391;SDS011;10355;53.688;10.078;2023-02-01T01:25:01;13.32;;;2.72;;
20391;SDS011;10355;53.688;10.078;2023-02-01T01:27:43;14.65;;;2.80;;
20391;SDS011;10355;53.688;10.078;2023-02-01T01:30:28;14.45;;;2.60;;
20391;SDS011;10355;53.688;10.078;2023-02-01T01:33:10;13.75;;;2.50;;
20391;SDS011;10355;53.688;10.078;2023-02-01T01:35:53;12.25;;;2.40;;
20391;SDS011;10355;53.688;10.078;2023-02-01T01:38:36;12.20;;;2.08;;
20391;SDS011;10355;53.688;10.078;2023-02-01T01:41:19;12.85;;;2.53;;
20391;SDS011;10355;53.688;10.078;2023-02-01T01:44:03;21.75;;;3.20;;
20391;SDS011;10355;53.688;10.078;2023-02-01T01:46:48;11.15;;;2.25;;
20391;SDS011;10355;53.688;10.078;2023-02-01T01:49:30;20.75;;;2.72;;
20391;SDS011;10355;53.688;10.078;2023-02-01T01:52:13;13.45;;;2.50;;
20391;SDS011;10355;53.688;10.078;2023-02-01T01:54:56;8.98;;;2.45;;
20391;SDS011;10355;53.688;10.078;2023-02-01T01:57:40;14.57;;;2.90;;
20391;SDS011;10355;53.688;10.078;2023-02-01T02:00:23;14.82;;;2.60;;
20391;SDS011;10355;53.688;10.078;2023-02-01T02:03:11;11.23;;;2.17;;
20391;SDS011;10355;53.688;10.078;2023-02-01T02:05:57;11.80;;;2.30;;
20391;SDS011;10355;53.688;10.078;2023-02-01T02:08:40;12.73;;;2.47;;
20391;SDS011;10355;53.688;10.078;2023-02-01T02:11:23;15.82;;;2.40;;
20391;SDS011;10355;53.688;10.078;2023-02-01T02:14:07;12.93;;;2.47;;
20391;SDS011;10355;53.688;10.078;2023-02-01T02:17:03;19.35;;;3.00;;
20391;SDS011;10355;53.688;10.078;2023-02-01T02:20:06;11.77;;;2.25;;
20391;SDS011;10355;53.688;10.078;2023-02-01T02:23:03;13.73;;;2.60;;
20391;SDS011;10355;53.688;10.078;2023-02-01T02:25:56;11.15;;;2.33;;
20391;SDS011;10355;53.688;10.078;2023-02-01T02:28:46;12.40;;;2.85;;
20391;SDS011;10355;53.688;10.078;2023-02-01T02:34:33;18.40;;;3.15;;
20391;SDS011;10355;53.688;10.078;2023-02-01T02:37:22;12.00;;;2.63;;
20391;SDS011;10355;53.688;10.078;2023-02-01T02:40:07;15.35;;;2.83;;
20391;SDS011;10355;53.688;10.078;2023-02-01T02:42:56;16.20;;;2.75;;
20391;SDS011;10355;53.688;10.078;2023-02-01T02:45:59;15.80;;;2.67;;
20391;SDS011;10355;53.688;10.078;2023-02-01T02:49:10;11.73;;;2.55;;
20391;SDS011;10355;53.688;10.078;2023-02-01T02:51:55;11.27;;;2.63;;
20391;SDS011;10355;53.688;10.078;2023-02-01T02:54:56;13.70;;;2.50;;
20391;SDS011;10355;53.688;10.078;2023-02-01T02:57:40;13.20;;;2.53;;
20391;SDS011;10355;53.688;10.078;2023-02-01T03:00:42;12.73;;;2.45;;
20391;SDS011;10355;53.688;10.078;2023-02-01T03:03:43;8.48;;;2.10;;
20391;SDS011;10355;53.688;10.078;2023-02-01T03:06:52;10.25;;;1.98;;
20391;SDS011;10355;53.688;10.078;2023-02-01T03:09:37;11.25;;;2.30;;
20391;SDS011;10355;53.688;10.078;2023-02-01T03:12:22;7.65;;;1.90;;
20391;SDS011;10355;53.688;10.078;2023-02-01T03:15:32;9.90;;;2.28;;
20391;SDS011;10355;53.688;10.078;2023-02-01T03:18:18;10.95;;;1.92;;
20391;SDS011;10355;53.688;10.078;2023-02-01T03:21:04;8.68;;;2.00;;
20391;SDS011;10355;53.688;10.078;2023-02-01T03:23:48;14.95;;;2.53;;
20391;SDS011;10355;53.688;10.078;2023-02-01T03:26:33;9.90;;;1.63;;
20391;SDS011;10355;53.688;10.078;2023-02-01T03:29:22;15.90;;;2.50;;
20391;SDS011;10355;53.688;10.078;2023-02-01T03:32:06;9.98;;;2.22;;
20391;SDS011;10355;53.688;10.078;2023-02-01T03:34:50;9.90;;;2.20;;
20391;SDS011;10355;53.688;10.078;2023-02-01T03:37:34;8.70;;;1.92;;
20391;SDS011;10355;53.688;10.078;2023-02-01T03:40:17;6.35;;;1.42;;
20391;SDS011;10355;53.688;10.078;2023-02-01T03:43:02;9.77;;;1.95;;
20391;SDS011;10355;53.688;10.078;2023-02-01T03:45:48;11.35;;;2.05;;
20391;SDS011;10355;53.688;10.078;2023-02-01T03:48:32;9.13;;;1.88;;
20391;SDS011;10355;53.688;10.078;2023-02-01T03:51:17;9.77;;;2.20;;
20391;SDS011;10355;53.688;10.078;2023-02-01T03:54:01;14.27;;;2.45;;
20391;SDS011;10355;53.688;10.078;2023-02-01T03:56:45;14.07;;;2.20;;
20391;SDS011;10355;53.688;10.078;2023-02-01T03:59:30;9.15;;;2.00;;
20391;SDS011;10355;53.688;10.078;2023-02-01T04:02:12;8.13;;;1.60;;
20391;SDS011;10355;53.688;10.078;2023-02-01T04:04:55;10.35;;;1.85;;
20391;SDS011;10355;53.688;10.078;2023-02-01T04:07:38;9.75;;;1.98;;
20391;SDS011;10355;53.688;10.078;2023-02-01T04:10:21;9.27;;;1.73;;
20391;SDS011;10355;53.688;10.078;2023-02-01T04:13:04;6.82;;;1.77;;
20391;SDS011;10355;53.688;10.078;2023-02-01T04:15:48;10.98;;;1.80;;
20391;SDS011;10355;53.688;10.078;2023-02-01T04:18:31;6.35;;;1.73;;
20391;SDS011;10355;53.688;10.078;2023-02-01T04:21:14;7.22;;;1.48;;
20391;SDS011;10355;53.688;10.078;2023-02-01T04:23:57;5.18;;;1.30;;
20391;SDS011;10355;53.688;10.078;2023-02-01T04:26:39;6.65;;;1.40;;
20391;SDS011;10355;53.688;10.078;2023-02-01T04:29:22;6.93;;;1.40;;
20391;SDS011;10355;53.688;10.078;2023-02-01T04:32:06;8.35;;;1.90;;
20391;SDS011;10355;53.688;10.078;2023-02-01T04:34:49;4.70;;;1.45;;
20391;SDS011;10355;53.688;10.078;2023-02-01T04:37:31;3.95;;;1.10;;
20391;SDS011;10355;53.688;10.078;2023-02-01T04:40:14;4.22;;;1.17;;
20391;SDS011;10355;53.688;10.078;2023-02-01T04:42:57;4.45;;;1.20;;
20391;SDS011;10355;53.688;10.078;2023-02-01T04:45:39;5.50;;;1.63;;
20391;SDS011;10355;53.688;10.078;2023-02-01T04:48:23;7.40;;;1.60;;
20391;SDS011;10355;53.688;10.078;2023-02-01T04:51:06;9.02;;;1.48;;
20391;SDS011;10355;53.688;10.078;2023-02-01T04:53:49;5.95;;;1.55;;
20391;SDS011;10355;53.688;10.078;2023-02-01T04:56:32;6.30;;;1.55;;
20391;SDS011;10355;53.688;10.078;2023-02-01T04:59:16;7.93;;;1.70;;
20391;SDS011;10355;53.688;10.078;2023-02-01T05:01:58;5.82;;;1.10;;
20391;SDS011;10355;53.688;10.078;2023-02-01T05:04:42;4.38;;;1.05;;
20391;SDS011;10355;53.688;10.078;2023-02-01T05:07:25;6.47;;;1.20;;
20391;SDS011;10355;53.688;10.078;2023-02-01T05:10:08;6.95;;;1.20;;
20391;SDS011;10355;53.688;10.078;2023-02-01T05:12:51;4.50;;;1.25;;
20391;SDS011;10355;53.688;10.078;2023-02-01T05:15:51;3.08;;;0.80;;
20391;SDS011;10355;53.688;10.078;2023-02-01T05:18:34;4.88;;;1.38;;
20391;SDS011;10355;53.688;10.078;2023-02-01T05:21:18;3.28;;;0.90;;
20391;SDS011;10355;53.688;10.078;2023-02-01T05:24:00;6.28;;;1.27;;
20391;SDS011;10355;53.688;10.078;2023-02-01T05:26:54;3.67;;;1.00;;
20391;SDS011;10355;53.688;10.078;2023-02-01T05:29:37;4.72;;;1.00;;
20391;SDS011;10355;53.688;10.078;2023-02-01T05:32:19;1.50;;;0.70;;
20391;SDS011;10355;53.688;10.078;2023-02-01T05:35:03;1.92;;;0.70;;
20391;SDS011;10355;53.688;10.078;2023-02-01T05:37:48;2.05;;;0.60;;
20391;SDS011;10355;53.688;10.078;2023-02-01T05:40:30;3.25;;;0.70;;
20391;SDS011;10355;53.688;10.078;2023-02-01T05:43:13;1.45;;;0.70;;
20391;SDS011;10355;53.688;10.078;2023-02-01T05:45:55;1.33;;;0.70;;
20391;SDS011;10355;53.688;10.078;2023-02-01T05:48:38;1.52;;;0.60;;
20391;SDS011;10355;53.688;10.078;2023-02-01T05:51:21;2.78;;;0.63;;
20391;SDS011;10355;53.688;10.078;2023-02-01T05:54:05;1.75;;;0.73;;
20391;SDS011;10355;53.688;10.078;2023-02-01T05:56:48;0.95;;;0.55;;
20391;SDS011;10355;53.688;10.078;2023-02-01T05:59:30;2.10;;;0.70;;
20391;SDS011;10355;53.688;10.078;2023-02-01T06:02:13;1.20;;;0.50;;
20391;SDS011;10355;53.688;10.078;2023-02-01T06:04:55;2.47;;;0.57;;
20391;SDS011;10355;53.688;10.078;2023-02-01T06:07:38;2.38;;;0.45;;
20391;SDS011;10355;53.688;10.078;2023-02-01T06:10:22;2.83;;;0.63;;
20391;SDS011;10355;53.688;10.078;2023-02-01T06:13:05;1.55;;;0.43;;
20391;SDS011;10355;53.688;10.078;2023-02-01T06:15:48;2.45;;;0.75;;
20391;SDS011;10355;53.688;10.078;2023-02-01T06:18:31;2.22;;;0.80;;
20391;SDS011;10355;53.688;10.078;2023-02-01T06:21:14;2.33;;;0.60;;
20391;SDS011;10355;53.688;10.078;2023-02-01T06:24:05;1.50;;;0.45;;
20391;SDS011;10355;53.688;10.078;2023-02-01T06:26:49;4.32;;;0.70;;
20391;SDS011;10355;53.688;10.078;2023-02-01T06:29:31;2.97;;;0.80;;
20391;SDS011;10355;53.688;10.078;2023-02-01T06:32:14;2.50;;;0.80;;
20391;SDS011;10355;53.688;10.078;2023-02-01T06:34:58;3.08;;;0.70;;
20391;SDS011;10355;53.688;10.078;2023-02-01T06:37:42;2.33;;;0.70;;
20391;SDS011;10355;53.688;10.078;2023-02-01T06:40:24;1.63;;;0.73;;
20391;SDS011;10355;53.688;10.078;2023-02-01T06:43:09;2.78;;;0.80;;
20391;SDS011;10355;53.688;10.078;2023-02-01T06:45:51;2.38;;;0.82;;
20391;SDS011;10355;53.688;10.078;2023-02-01T06:48:34;3.65;;;0.90;;
20391;SDS011;10355;53.688;10.078;2023-02-01T06:51:20;5.28;;;0.93;;
20391;SDS011;10355;53.688;10.078;2023-02-01T06:54:04;3.60;;;1.02;;
20391;SDS011;10355;53.688;10.078;2023-02-01T06:56:46;3.42;;;1.00;;
20391;SDS011;10355;53.688;10.078;2023-02-01T06:59:30;3.13;;;0.93;;
20391;SDS011;10355;53.688;10.078;2023-02-01T07:02:13;5.97;;;1.25;;
20391;SDS011;10355;53.688;10.078;2023-02-01T07:04:56;2.33;;;0.75;;
20391;SDS011;10355;53.688;10.078;2023-02-01T07:07:38;4.20;;;1.00;;
20391;SDS011;10355;53.688;10.078;2023-02-01T07:10:21;4.75;;;1.23;;
20391;SDS011;10355;53.688;10.078;2023-02-01T07:13:04;7.45;;;1.38;;
20391;SDS011;10355;53.688;10.078;2023-02-01T07:15:48;6.90;;;1.23;;
20391;SDS011;10355;53.688;10.078;2023-02-01T07:18:31;4.68;;;1.25;;
20391;SDS011;10355;53.688;10.078;2023-02-01T07:21:13;5.75;;;1.00;;
20391;SDS011;10355;53.688;10.078;2023-02-01T07:23:57;4.93;;;1.40;;
20391;SDS011;10355;53.688;10.078;2023-02-01T07:26:40;6.25;;;1.58;;
20391;SDS011;10355;53.688;10.078;2023-02-01T07:29:23;6.07;;;1.42;;
20391;SDS011;10355;53.688;10.078;2023-02-01T07:32:07;6.28;;;1.60;;
20391;SDS011;10355;53.688;10.078;2023-02-01T07:34:49;7.68;;;1.60;;
20391;SDS011;10355;53.688;10.078;2023-02-01T07:37:32;8.45;;;1.92;;
20391;SDS011;10355;53.688;10.078;2023-02-01T07:40:15;7.75;;;1.70;;
20391;SDS011;10355;53.688;10.078;2023-02-01T07:42:59;11.55;;;2.00;;
20391;SDS011;10355;53.688;10.078;2023-02-01T07:45:42;7.07;;;1.70;;
20391;SDS011;10355;53.688;10.078;2023-02-01T07:48:26;6.15;;;1.63;;
20391;SDS011;10355;53.688;10.078;2023-02-01T07:51:10;8.30;;;1.70;;
20391;SDS011;10355;53.688;10.078;2023-02-01T07:53:53;8.80;;;1.92;;
20391;SDS011;10355;53.688;10.078;2023-02-01T07:56:36;8.82;;;1.98;;
20391;SDS011;10355;53.688;10.078;2023-02-01T07:59:19;9.02;;;1.73;;
20391;SDS011;10355;53.688;10.078;2023-02-01T08:02:02;11.50;;;1.85;;
20391;SDS011;10355;53.688;10.078;2023-02-01T08:04:46;9.18;;;1.52;;
20391;SDS011;10355;53.688;10.078;2023-02-01T08:07:28;12.55;;;1.92;;
20391;SDS011;10355;53.688;10.078;2023-02-01T08:10:11;10.45;;;1.92;;
20391;SDS011;10355;53.688;10.078;2023-02-01T08:12:57;12.05;;;2.10;;
20391;SDS011;10355;53.688;10.078;2023-02-01T08:15:42;11.85;;;2.10;;
20391;SDS011;10355;53.688;10.078;2023-02-01T08:18:25;11.77;;;2.25;;
20391;SDS011;10355;53.688;10.078;2023-02-01T08:21:09;12.93;;;2.13;;
20391;SDS011;10355;53.688;10.078;2023-02-01T08:23:52;13.65;;;2.40;;
20391;SDS011;10355;53.688;10.078;2023-02-01T08:26:37;10.35;;;2.15;;
20391;SDS011;10355;53.688;10.078;2023-02-01T08:29:20;10.63;;;2.00;;
20391;SDS011;10355;53.688;10.078;2023-02-01T08:32:03;8.90;;;1.80;;
20391;SDS011;10355;53.688;10.078;2023-02-01T08:34:46;9.90;;;2.15;;
20391;SDS011;10355;53.688;10.078;2023-02-01T08:37:30;10.85;;;1.80;;
20391;SDS011;10355;53.688;10.078;2023-02-01T08:40:13;8.43;;;1.95;;
20391;SDS011;10355;53.688;10.078;2023-02-01T08:42:56;9.88;;;1.98;;
20391;SDS011;10355;53.688;10.078;2023-02-01T08:45:39;8.50;;;1.88;;
20391;SDS011;10355;53.688;10.078;2023-02-01T08:48:22;12.60;;;1.88;;
20391;SDS011;10355;53.688;10.078;2023-02-01T08:51:05;5.70;;;1.50;;
20391;SDS011;10355;53.688;10.078;2023-02-01T08:53:50;7.35;;;1.70;;
20391;SDS011;10355;53.688;10.078;2023-02-01T08:56:32;8.38;;;1.67;;
20391;SDS011;10355;53.688;10.078;2023-02-01T08:59:15;10.63;;;1.77;;
20391;SDS011;10355;53.688;10.078;2023-02-01T09:01:58;7.53;;;1.67;;
20391;SDS011;10355;53.688;10.078;2023-02-01T09:04:40;7.32;;;1.40;;
20391;SDS011;10355;53.688;10.078;2023-02-01T09:07:23;5.90;;;1.58;;
20391;SDS011;10355;53.688;10.078;2023-02-01T09:10:08;9.13;;;1.55;;
20391;SDS011;10355;53.688;10.078;2023-02-01T09:12:51;6.07;;;1.10;;
20391;SDS011;10355;53.688;10.078;2023-02-01T09:15:34;5.07;;;1.60;;
20391;SDS011;10355;53.688;10.078;2023-02-01T09:18:16;9.95;;;1.77;;
20391;SDS011;10355;53.688;10.078;2023-02-01T09:21:03;6.40;;;2.03;;
20391;SDS011;10355;53.688;10.078;2023-02-01T09:23:45;8.25;;;1.60;;
20391;SDS011;10355;53.688;10.078;2023-02-01T09:26:31;8.05;;;1.85;;
20391;SDS011;10355;53.688;10.078;2023-02-01T09:29:14;8.60;;;2.35;;
20391;SDS011;10355;53.688;10.078;2023-02-01T09:31:56;10.18;;;1.90;;
20391;SDS011;10355;53.688;10.078;2023-02-01T09:34:44;9.38;;;2.00;;
20391;SDS011;10355;53.688;10.078;2023-02-01T09:37:27;8.13;;;1.33;;
20391;SDS011;10355;53.688;10.078;2023-02-01T09:40:12;8.50;;;1.90;;
20391;SDS011;10355;53.688;10.078;2023-02-01T09:43:03;4.25;;;1.60;;
20391;SDS011;10355;53.688;10.078;2023-02-01T09:45:51;10.70;;;2.17;;
20391;SDS011;10355;53.688;10.078;2023-02-01T09:48:37;8.05;;;2.05;;
20391;SDS011;10355;53.688;10.078;2023-02-01T09:51:21;14.45;;;3.47;;
20391;SDS011;10355;53.688;10.078;2023-02-01T09:54:07;12.23;;;1.90;;
20391;SDS011;10355;53.688;10.078;2023-02-01T09:56:51;10.65;;;1.98;;
20391;SDS011;10355;53.688;10.078;2023-02-01T09:59:38;6.88;;;1.73;;
20391;SDS011;10355;53.688;10.078;2023-02-01T10:02:23;7.50;;;2.00;;
20391;SDS011;10355;53.688;10.078;2023-02-01T10:05:11;8.70;;;2.03;;
20391;SDS011;10355;53.688;10.078;2023-02-01T10:07:57;9.05;;;1.67;;
20391;SDS011;10355;53.688;10.078;2023-02-01T10:10:43;15.88;;;2.15;;
20391;SDS011;10355;53.688;10.078;2023-02-01T10:13:31;10.60;;;2.13;;
20391;SDS011;10355;53.688;10.078;2023-02-01T10:16:19;10.23;;;2.00;;
20391;SDS011;10355;53.688;10.078;2023-02-01T10:19:18;11.60;;;1.83;;
20391;SDS011;10355;53.688;10.078;2023-02-01T10:22:03;8.23;;;1.98;;
20391;SDS011;10355;53.688;10.078;2023-02-01T10:24:47;11.77;;;2.00;;
20391;SDS011;10355;53.688;10.078;2023-02-01T10:27:38;11.07;;;2.17;;
20391;SDS011;10355;53.688;10.078;2023-02-01T10:30:22;11.15;;;1.90;;
20391;SDS011;10355;53.688;10.078;2023-02-01T10:33:12;8.98;;;1.75;;
20391;SDS011;10355;53.688;10.078;2023-02-01T10:35:58;10.98;;;2.20;;
20391;SDS011;10355;53.688;10.078;2023-02-01T10:38:44;10.40;;;2.20;;
20391;SDS011;10355;53.688;10.078;2023-02-01T10:41:30;9.75;;;1.77;;
20391;SDS011;10355;53.688;10.078;2023-02-01T10:44:14;11.25;;;2.33;;
20391;SDS011;10355;53.688;10.078;2023-02-01T10:46:57;13.73;;;2.38;;
20391;SDS011;10355;53.688;10.078;2023-02-01T10:49:43;13.77;;;2.03;;
20391;SDS011;10355;53.688;10.078;2023-02-01T10:52:31;10.52;;;2.22;;
20391;SDS011;10355;53.688;10.078;2023-02-01T10:55:26;10.35;;;1.80;;
20391;SDS011;10355;53.688;10.078;2023-02-01T10:58:14;10.40;;;2.20;;
20391;SDS011;10355;53.688;10.078;2023-02-01T11:00:58;9.57;;;1.55;;
20391;SDS011;10355;53.688;10.078;2023-02-01T11:03:41;12.45;;;2.67;;
20391;SDS011;10355;53.688;10.078;2023-02-01T11:06:27;8.30;;;1.67;;
20391;SDS011;10355;53.688;10.078;2023-02-01T11:09:11;11.50;;;2.15;;
20391;SDS011;10355;53.688;10.078;2023-02-01T11:11:58;8.18;;;1.95;;
20391;SDS011;10355;53.688;10.078;2023-02-01T11:14:41;9.38;;;1.73;;
20391;SDS011;10355;53.688;10.078;2023-02-01T11:17:25;8.70;;;1.98;;
20391;SDS011;10355;53.688;10.078;2023-02-01T11:20:12;10.25;;;1.90;;
20391;SDS011;10355;53.688;10.078;2023-02-01T11:22:56;7.00;;;1.83;;
20391;SDS011;10355;53.688;10.078;2023-02-01T11:25:39;6.05;;;1.63;;
20391;SDS011;10355;53.688;10.078;2023-02-01T11:28:30;8.57;;;1.70;;
20391;SDS011;10355;53.688;10.078;2023-02-01T11:31:13;9.77;;;2.30;;
20391;SDS011;10355;53.688;10.078;2023-02-01T11:33:58;9.88;;;1.77;;
20391;SDS011;10355;53.688;10.078;2023-02-01T11:36:41;7.63;;;1.70;;
20391;SDS011;10355;53.688;10.078;2023-02-01T11:39:28;7.63;;;1.58;;
20391;SDS011;10355;53.688;10.078;2023-02-01T11:42:12;6.70;;;1.90;;
20391;SDS011;10355;53.688;10.078;2023-02-01T11:45:17;8.77;;;2.13;;
20391;SDS011;10355;53.688;10.078;2023-02-01T11:48:00;8.50;;;1.73;;
20391;SDS011;10355;53.688;10.078;2023-02-01T11:50:44;11.82;;;1.80;;
20391;SDS011;10355;53.688;10.078;2023-02-01T11:53:33;8.63;;;1.70;;
20391;SDS011;10355;53.688;10.078;2023-02-01T11:56:22;10.73;;;1.85;;
20391;SDS011;10355;53.688;10.078;2023-02-01T11:59:16;8.73;;;1.80;;
20391;SDS011;10355;53.688;10.078;2023-02-01T12:02:09;7.60;;;1.55;;
20391;SDS011;10355;53.688;10.078;2023-02-01T12:05:04;9.25;;;1.60;;
20391;SDS011;10355;53.688;10.078;2023-02-01T12:07:54;7.45;;;1.50;;
20391;SDS011;10355;53.688;10.078;2023-02-01T12:10:44;8.82;;;1.50;;
20391;SDS011;10355;53.688;10.078;2023-02-01T12:13:37;5.63;;;1.38;;
20391;SDS011;10355;53.688;10.078;2023-02-01T12:16:25;9.52;;;1.60;;
20391;SDS011;10355;53.688;10.078;2023-02-01T12:19:14;7.55;;;1.50;;
20391;SDS011;10355;53.688;10.078;2023-02-01T12:22:14;6.80;;;1.35;;
20391;SDS011;10355;53.688;10.078;2023-02-01T12:25:06;8.05;;;1.67;;
20391;SDS011;10355;53.688;10.078;2023-02-01T12:28:00;7.50;;;1.30;;
20391;SDS011;10355;53.688;10.078;2023-02-01T12:30:54;8.85;;;1.60;;
20391;SDS011;10355;53.688;10.078;2023-02-01T12:33:43;6.70;;;1.63;;
20391;SDS011;10355;53.688;10.078;2023-02-01T12:36:32;6.13;;;1.30;;
20391;SDS011;10355;53.688;10.078;2023-02-01T12:39:21;4.50;;;1.08;;
20391;SDS011;10355;53.688;10.078;2023-02-01T12:42:08;1.80;;;0.70;;
20391;SDS011;10355;53.688;10.078;2023-02-01T12:44:53;2.00;;;0.70;;
20391;SDS011;10355;53.688;10.078;2023-02-01T12:47:40;1.02;;;0.50;;
20391;SDS011;10355;53.688;10.078;2023-02-01T12:50:26;3.50;;;1.00;;
20391;SDS011;10355;53.688;10.078;2023-02-01T12:53:14;1.95;;;0.80;;
20391;SDS011;10355;53.688;10.078;2023-02-01T12:56:02;1.70;;;0.80;;
20391;SDS011;10355;53.688;10.078;2023-02-01T12:58:49;3.75;;;0.85;;
20391;SDS011;10355;53.688;10.078;2023-02-01T13:01:34;1.63;;;0.70;;
20391;SDS011;10355;53.688;10.078;2023-02-01T13:04:19;1.92;;;0.60;;
20391;SDS011;10355;53.688;10.078;2023-02-01T13:07:06;1.63;;;0.60;;
20391;SDS011;10355;53.688;10.078;2023-02-01T13:09:51;3.33;;;0.50;;
20391;SDS011;10355;53.688;10.078;2023-02-01T13:12:36;1.27;;;0.60;;
20391;SDS011;10355;53.688;10.078;2023-02-01T13:15:20;3.47;;;0.50;;
20391;SDS011;10355;53.688;10.078;2023-02-01T13:18:04;1.42;;;0.68;;
20391;SDS011;10355;53.688;10.078;2023-02-01T13:20:53;2.85;;;0.50;;
20391;SDS011;10355;53.688;10.078;2023-02-01T13:23:37;1.45;;;0.50;;
20391;SDS011;10355;53.688;10.078;2023-02-01T13:26:20;1.98;;;0.57;;
20391;SDS011;10355;53.688;10.078;2023-02-01T13:29:04;2.30;;;0.50;;
20391;SDS011;10355;53.688;10.078;2023-02-01T13:34:58;1.13;;;0.40;;
20391;SDS011;10355;53.688;10.078;2023-02-01T13:37:54;3.25;;;0.70;;
20391;SDS011;10355;53.688;10.078;2023-02-01T13:40:39;1.90;;;0.60;;
20391;SDS011;10355;53.688;10.078;2023-02-01T13:43:24;3.28;;;0.50;;
20391;SDS011;10355;53.688;10.078;2023-02-01T13:46:09;1.95;;;0.68;;
20391;SDS011;10355;53.688;10.078;2023-02-01T13:48:55;2.35;;;0.60;;
20391;SDS011;10355;53.688;10.078;2023-02-01T13:51:40;2.40;;;0.50;;
20391;SDS011;10355;53.688;10.078;2023-02-01T13:54:26;2.80;;;0.50;;
20391;SDS011;10355;53.688;10.078;2023-02-01T13:57:14;0.85;;;0.50;;
20391;SDS011;10355;53.688;10.078;2023-02-01T14:00:09;1.70;;;0.50;;
20391;SDS011;10355;53.688;10.078;2023-02-01T14:03:09;1.65;;;0.57;;
20391;SDS011;10355;53.688;10.078;2023-02-01T14:06:00;1.48;;;0.70;;
20391;SDS011;10355;53.688;10.078;2023-02-01T14:08:44;1.33;;;0.55;;
20391;SDS011;10355;53.688;10.078;2023-02-01T14:11:37;2.78;;;0.63;;
20391;SDS011;10355;53.688;10.078;2023-02-01T14:17:32;3.67;;;0.95;;
20391;SDS011;10355;53.688;10.078;2023-02-01T14:23:27;1.88;;;0.70;;
20391;SDS011;10355;53.688;10.078;2023-02-01T14:26:13;2.72;;;0.95;;
20391;SDS011;10355;53.688;10.078;2023-02-01T14:29:02;3.47;;;0.88;;
20391;SDS011;10355;53.688;10.078;2023-02-01T14:31:59;4.57;;;0.80;;
20391;SDS011;10355;53.688;10.078;2023-02-01T14:34:48;5.38;;;1.27;;
20391;SDS011;10355;53.688;10.078;2023-02-01T14:37:34;4.85;;;0.90;;
20391;SDS011;10355;53.688;10.078;2023-02-01T14:40:20;3.78;;;1.20;;
20391;SDS011;10355;53.688;10.078;2023-02-01T14:43:07;2.92;;;0.75;;
20391;SDS011;10355;53.688;10.078;2023-02-01T14:46:11;2.33;;;0.70;;
20391;SDS011;10355;53.688;10.078;2023-02-01T14:48:54;3.88;;;0.63;;
20391;SDS011;10355;53.688;10.078;2023-02-01T14:51:37;2.25;;;0.88;;
20391;SDS011;10355;53.688;10.078;2023-02-01T14:54:20;4.88;;;1.02;;
20391;SDS011;10355;53.688;10.078;2023-02-01T14:57:05;1.55;;;0.50;;
20391;SDS011;10355;53.688;10.078;2023-02-01T14:59:53;3.15;;;0.60;;
20391;SDS011;10355;53.688;10.078;2023-02-01T15:02:39;6.30;;;0.80;;
20391;SDS011;10355;53.688;10.078;2023-02-01T15:05:30;3.25;;;0.80;;
20391;SDS011;10355;53.688;10.078;2023-02-01T15:08:15;4.95;;;0.85;;
20391;SDS011;10355;53.688;10.078;2023-02-01T15:10:59;3.35;;;1.13;;
20391;SDS011;10355;53.688;10.078;2023-02-01T15:13:47;5.32;;;1.23;;
20391;SDS011;10355;53.688;10.078;2023-02-01T15:16:33;4.82;;;1.20;;
20391;SDS011;10355;53.688;10.078;2023-02-01T15:19:17;7.40;;;1.33;;
20391;SDS011;10355;53.688;10.078;2023-02-01T15:22:00;2.60;;;0.95;;
20391;SDS011;10355;53.688;10.078;2023-02-01T15:24:42;3.42;;;0.90;;
20391;SDS011;10355;53.688;10.078;2023-02-01T15:27:25;5.80;;;1.30;;
20391;SDS011;10355;53.688;10.078;2023-02-01T15:30:12;3.90;;;1.02;;
20391;SDS011;10355;53.688;10.078;2023-02-01T15:33:05;3.75;;;0.93;;
20391;SDS011;10355;53.688;10.078;2023-02-01T15:35:50;7.43;;;1.10;;
20391;SDS011;10355;53.688;10.078;2023-02-01T15:38:35;8.50;;;1.20;;
20391;SDS011;10355;53.688;10.078;2023-02-01T15:41:19;6.78;;;1.60;;
20391;SDS011;10355;53.688;10.078;2023-02-01T15:44:03;7.88;;;1.83;;
20391;SDS011;10355;53.688;10.078;2023-02-01T15:46:47;9.13;;;1.42;;
20391;SDS011;10355;53.688;10.078;2023-02-01T15:49:31;8.90;;;1.75;;
20391;SDS011;10355;53.688;10.078;2023-02-01T15:52:19;7.47;;;1.67;;
20391;SDS011;10355;53.688;10.078;2023-02-01T15:55:03;7.85;;;1.38;;
20391;SDS011;10355;53.688;10.078;2023-02-01T15:57:47;9.40;;;1.35;;
20391;SDS011;10355;53.688;10.078;2023-02-01T16:00:31;6.90;;;1.85;;
20391;SDS011;10355;53.688;10.078;2023-02-01T16:03:25;5.47;;;1.90;;
20391;SDS011;10355;53.688;10.078;2023-02-01T16:06:08;7.60;;;1.55;;
20391;SDS011;10355;53.688;10.078;2023-02-01T16:08:53;6.68;;;1.60;;
20391;SDS011;10355;53.688;10.078;2023-02-01T16:11:40;7.18;;;1.75;;
20391;SDS011;10355;53.688;10.078;2023-02-01T16:14:24;10.95;;;1.92;;
20391;SDS011;10355;53.688;10.078;2023-02-01T16:17:07;8.90;;;1.63;;
20391;SDS011;10355;53.688;10.078;2023-02-01T16:19:51;8.43;;;2.10;;
20391;SDS011;10355;53.688;10.078;2023-02-01T16:22:33;6.78;;;2.03;;
20391;SDS011;10355;53.688;10.078;2023-02-01T16:25:18;10.65;;;2.08;;
20391;SDS011;10355;53.688;10.078;2023-02-01T16:28:00;10.32;;;2.30;;
20391;SDS011;10355;53.688;10.078;2023-02-01T16:30:43;12.15;;;1.98;;